Time;durP1;ratioP1;P1;durP2;ratioP2;P2;SDS_P1;SDS_P2;PMS_P1;PMS_P2;Temp;Humidity;BMP_temperature;BMP_pressure;BME280_temperature;BME280_humidity;BME280_pressure;Samples;Min_cycle;Max_cycle;Signal;HPM_P1;HPM_P2
2023/06/14 00:00:53;;;;;;;6.32;2.22;;;17.10;80.10;;;;;;5062999;28;20302;-54
2023/06/14 00:03:22;;;;;;;8.00;2.63;;;17.10;80.10;;;;;;5060953;28;20100;-55
2023/06/14 00:05:48;;;;;;;7.72;2.50;;;17.10;80.30;;;;;;5048317;28;20040;-54
2023/06/14 00:08:14;;;;;;;7.55;2.88;;;17.00;80.70;;;;;;5068407;28;20532;-53
2023/06/14 00:10:41;;;;;;;3.00;1.70;;;17.00;80.90;;;;;;5065915;28;20032;-55
2023/06/14 00:13:08;;;;;;;6.75;1.80;;;17.00;81.20;;;;;;5068385;28;20078;-55
2023/06/14 00:15:34;;;;;;;4.97;2.25;;;17.00;81.70;;;;;;5063238;28;20130;-54
2023/06/14 00:18:01;;;;;;;5.18;2.13;;;17.00;81.20;;;;;;5079293;28;20463;-54
2023/06/14 00:20:28;;;;;;;3.35;2.00;;;16.90;81.20;;;;;;5061250;28;20569;-55
2023/06/14 00:22:57;;;;;;;8.60;2.42;;;16.90;81.70;;;;;;5067503;28;20051;-55
2023/06/14 00:25:26;;;;;;;3.92;2.20;;;17.00;81.30;;;;;;5048995;28;20043;-54
2023/06/14 00:27:52;;;;;;;3.08;1.98;;;17.00;81.20;;;;;;5069091;28;20036;-54
2023/06/14 00:30:18;;;;;;;5.78;2.17;;;17.00;81.30;;;;;;5044273;28;20040;-54
2023/06/14 00:32:45;;;;;;;4.95;2.10;;;16.90;81.60;;;;;;5080232;28;20036;-55
2023/06/14 00:35:11;;;;;;;3.38;1.67;;;16.90;81.80;;;;;;5060055;28;20140;-55
2023/06/14 00:37:37;;;;;;;5.05;2.00;;;16.80;81.90;;;;;;5063702;28;20055;-55
2023/06/14 00:40:04;;;;;;;3.67;2.00;;;16.80;81.80;;;;;;5061347;28;20047;-55
2023/06/14 00:42:30;;;;;;;6.20;2.30;;;16.80;82.30;;;;;;5064354;28;20040;-55
2023/06/14 00:44:56;;;;;;;7.18;2.45;;;16.70;82.60;;;;;;5044369;28;20479;-55
2023/06/14 00:47:22;;;;;;;2.95;1.70;;;16.60;82.60;;;;;;5059178;28;20092;-56
2023/06/14 00:49:50;;;;;;;4.45;1.52;;;16.60;82.60;;;;;;5082969;28;20067;-55
2023/06/14 00:52:17;;;;;;;5.68;1.80;;;16.60;82.90;;;;;;5062394;28;20114;-55
2023/06/14 00:54:43;;;;;;;4.55;2.10;;;16.50;83.30;;;;;;5081227;28;20063;-54
2023/06/14 00:57:10;;;;;;;3.47;1.63;;;16.50;83.30;;;;;;5042666;28;20159;-54
2023/06/14 00:59:45;;;;;;;3.13;2.03;;;16.50;84.00;;;;;;5065095;28;20040;-54
2023/06/14 01:02:12;;;;;;;9.05;2.00;;;16.50;84.30;;;;;;5060298;28;20051;-53
2023/06/14 01:04:45;;;;;;;6.28;2.50;;;16.50;84.20;;;;;;5043016;28;20504;-51
2023/06/14 01:07:23;;;;;;;3.88;2.13;;;16.40;84.20;;;;;;5066245;28;20495;-54
2023/06/14 01:10:14;;;;;;;5.68;1.70;;;16.40;84.50;;;;;;5035162;28;20044;-54
2023/06/14 01:13:02;;;;;;;4.38;1.73;;;16.40;84.60;;;;;;5045560;28;20491;-54
2023/06/14 01:15:30;;;;;;;4.32;2.10;;;16.40;85.10;;;;;;5066369;28;20040;-50
2023/06/14 01:18:02;;;;;;;3.55;1.98;;;16.30;85.10;;;;;;5081395;28;20105;-52
2023/06/14 01:20:30;;;;;;;4.30;1.63;;;16.30;85.30;;;;;;5048625;28;20805;-55
2023/06/14 01:22:56;;;;;;;6.72;1.90;;;16.20;85.80;;;;;;5043526;28;20031;-51
2023/06/14 01:25:23;;;;;;;2.88;1.60;;;16.30;85.90;;;;;;5081675;28;20055;-54
2023/06/14 01:27:52;;;;;;;4.80;1.88;;;16.20;85.90;;;;;;5055261;28;20048;-51
2023/06/14 01:30:20;;;;;;;5.57;1.88;;;16.20;86.30;;;;;;5081593;28;20036;-52
2023/06/14 01:32:46;;;;;;;4.30;1.67;;;16.20;86.60;;;;;;5042532;28;20096;-53
2023/06/14 01:35:12;;;;;;;3.83;1.58;;;16.10;86.90;;;;;;5046367;28;20070;-54
2023/06/14 01:37:40;;;;;;;5.07;2.17;;;16.10;87.00;;;;;;5040980;28;20083;-53
2023/06/14 01:40:07;;;;;;;3.00;1.50;;;16.00;87.30;;;;;;5068658;28;20044;-54
2023/06/14 01:42:37;;;;;;;4.50;1.80;;;16.00;87.80;;;;;;5065353;28;20036;-53
2023/06/14 01:45:05;;;;;;;5.57;1.70;;;15.90;88.60;;;;;;5064985;28;20063;-54
2023/06/14 01:47:32;;;;;;;3.22;1.70;;;15.90;88.40;;;;;;5047626;28;20048;-53
2023/06/14 01:49:58;;;;;;;4.40;1.90;;;15.90;88.40;;;;;;5085267;28;20446;-55
2023/06/14 01:52:24;;;;;;;5.45;2.13;;;15.90;88.80;;;;;;5062387;28;20060;-54
2023/06/14 01:54:50;;;;;;;5.38;2.50;;;15.90;88.80;;;;;;5069959;28;20048;-51
2023/06/14 01:57:16;;;;;;;2.83;1.58;;;15.80;89.30;;;;;;5047934;28;20043;-54
2023/06/14 01:59:42;;;;;;;5.13;1.98;;;15.80;89.60;;;;;;5053536;28;20028;-54
2023/06/14 02:02:07;;;;;;;4.25;1.80;;;15.80;89.60;;;;;;5064719;28;20498;-54
2023/06/14 02:04:33;;;;;;;4.60;1.60;;;15.80;90.10;;;;;;5063399;28;20032;-54
2023/06/14 02:07:00;;;;;;;5.22;2.00;;;15.80;90.00;;;;;;5068000;28;20128;-53
2023/06/14 02:09:25;;;;;;;3.85;1.65;;;15.80;90.10;;;;;;5067266;28;20560;-54
2023/06/14 02:11:51;;;;;;;2.40;1.52;;;15.70;90.10;;;;;;5083220;28;20036;-55
2023/06/14 02:14:17;;;;;;;4.95;1.55;;;15.60;90.30;;;;;;5066565;28;20051;-54
2023/06/14 02:16:49;;;;;;;4.32;1.73;;;15.60;90.30;;;;;;5051442;28;20044;-53
2023/06/14 02:19:19;;;;;;;5.55;1.73;;;15.60;90.50;;;;;;5068017;28;20051;-53
2023/06/14 02:21:45;;;;;;;7.65;1.92;;;15.60;90.60;;;;;;5067220;23;20059;-55
2023/06/14 02:24:11;;;;;;;3.28;1.67;;;15.60;90.70;;;;;;5078334;28;20498;-55
2023/06/14 02:26:41;;;;;;;5.07;2.05;;;15.60;90.80;;;;;;5070979;28;20094;-54
2023/06/14 02:29:10;;;;;;;5.32;2.10;;;15.50;91.00;;;;;;5072239;28;20119;-54
2023/06/14 02:31:36;;;;;;;4.18;1.92;;;15.40;91.10;;;;;;5074434;28;20040;-52
2023/06/14 02:34:02;;;;;;;6.07;2.00;;;15.40;91.20;;;;;;5038258;28;20048;-55
2023/06/14 02:36:30;;;;;;;5.50;2.20;;;15.40;91.30;;;;;;5068993;28;20043;-55
2023/06/14 02:38:59;;;;;;;2.50;1.33;;;15.30;91.40;;;;;;5066986;28;20047;-54
2023/06/14 02:41:25;;;;;;;3.90;1.80;;;15.30;91.70;;;;;;5047176;28;20154;-53
2023/06/14 02:43:52;;;;;;;3.75;1.92;;;15.30;91.60;;;;;;5040184;28;20048;-56
2023/06/14 02:46:17;;;;;;;7.90;1.70;;;15.30;91.90;;;;;;5030768;28;20041;-56
2023/06/14 02:48:43;;;;;;;4.70;2.20;;;15.30;91.90;;;;;;5054865;28;20037;-56
2023/06/14 02:51:09;;;;;;;5.63;1.85;;;15.30;91.90;;;;;;5048974;28;20074;-55
2023/06/14 02:53:36;;;;;;;8.48;2.20;;;15.30;92.20;;;;;;5057695;28;20347;-55
2023/06/14 02:56:03;;;;;;;4.78;2.25;;;15.20;92.10;;;;;;5044214;28;20041;-56
2023/06/14 02:58:30;;;;;;;3.47;1.85;;;15.20;92.40;;;;;;5048338;28;20545;-55
2023/06/14 03:00:56;;;;;;;3.95;2.00;;;15.20;92.60;;;;;;5064547;28;20037;-55
2023/06/14 03:03:24;;;;;;;6.10;2.50;;;15.20;92.60;;;;;;5063647;28;20123;-56
2023/06/14 03:05:51;;;;;;;2.88;1.90;;;15.10;93.00;;;;;;5058236;28;20275;-54
2023/06/14 03:08:19;;;;;;;6.93;2.58;;;15.10;92.90;;;;;;5031125;28;20032;-56
2023/06/14 03:10:48;;;;;;;6.03;2.17;;;15.10;93.00;;;;;;5045002;28;20439;-56
2023/06/14 03:13:21;;;;;;;6.57;2.00;;;15.10;93.10;;;;;;5065719;28;20128;-56
2023/06/14 03:15:47;;;;;;;4.80;2.25;;;15.10;93.30;;;;;;5063476;28;20091;-55
2023/06/14 03:18:14;;;;;;;5.70;2.08;;;15.10;93.40;;;;;;5051510;28;20118;-55
2023/06/14 03:20:42;;;;;;;4.40;2.00;;;15.10;93.40;;;;;;5057119;28;20055;-55
2023/06/14 03:23:08;;;;;;;4.13;2.20;;;15.10;93.50;;;;;;5059168;28;20128;-56
2023/06/14 03:25:35;;;;;;;3.90;2.40;;;15.10;93.60;;;;;;5047303;28;20159;-53
2023/06/14 03:28:10;;;;;;;5.47;2.70;;;15.10;93.60;;;;;;5051165;28;20044;-56
2023/06/14 03:30:36;;;;;;;3.40;1.88;;;15.10;93.90;;;;;;5053876;28;20036;-57
2023/06/14 03:33:03;;;;;;;6.50;2.28;;;15.10;94.00;;;;;;5073380;28;20434;-57
2023/06/14 03:35:29;;;;;;;4.72;2.20;;;15.00;94.20;;;;;;5064404;28;20041;-54
2023/06/14 03:37:55;;;;;;;5.18;2.45;;;15.00;94.50;;;;;;5064422;28;20112;-56
2023/06/14 03:40:21;;;;;;;4.10;2.30;;;15.00;94.40;;;;;;5064547;28;20135;-57
2023/06/14 03:42:47;;;;;;;4.50;2.20;;;15.00;94.60;;;;;;5065716;28;20094;-56
2023/06/14 03:45:13;;;;;;;8.95;2.85;;;15.00;94.80;;;;;;5063681;28;20053;-57
2023/06/14 03:47:38;;;;;;;4.07;2.17;;;15.00;95.00;;;;;;5055343;28;20122;-56
2023/06/14 03:50:05;;;;;;;4.32;2.75;;;15.00;95.20;;;;;;5052205;28;20036;-55
2023/06/14 03:52:31;;;;;;;5.97;2.40;;;15.00;95.20;;;;;;5063514;28;20056;-56
2023/06/14 03:54:59;;;;;;;6.28;2.53;;;14.90;95.60;;;;;;5051262;28;20070;-55
2023/06/14 03:57:25;;;;;;;6.65;2.53;;;14.90;95.60;;;;;;5029130;28;20404;-54
2023/06/14 03:59:50;;;;;;;5.80;2.45;;;14.90;95.90;;;;;;5030377;28;20048;-56
2023/06/14 04:02:17;;;;;;;7.05;2.83;;;14.90;96.10;;;;;;5051412;28;20037;-55
2023/06/14 04:04:45;;;;;;;7.20;2.85;;;14.90;96.30;;;;;;5038148;28;20052;-54
2023/06/14 04:07:12;;;;;;;5.70;2.72;;;15.00;96.50;;;;;;5056702;28;20517;-55
2023/06/14 04:09:39;;;;;;;4.03;2.17;;;15.00;96.60;;;;;;5061337;28;20044;-55
2023/06/14 04:12:05;;;;;;;5.30;2.58;;;15.00;96.90;;;;;;5065909;28;20102;-54
2023/06/14 04:14:32;;;;;;;3.85;2.40;;;15.00;96.90;;;;;;5050848;28;20052;-57
2023/06/14 04:16:58;;;;;;;10.95;2.70;;;15.00;96.90;;;;;;5050152;28;20045;-56
2023/06/14 04:19:25;;;;;;;4.57;2.78;;;15.00;97.10;;;;;;5066661;28;20040;-58
2023/06/14 04:21:50;;;;;;;5.95;2.90;;;15.00;97.20;;;;;;5047418;28;20043;-57
2023/06/14 04:24:16;;;;;;;6.97;2.78;;;15.00;97.20;;;;;;5044653;28;20048;-55
2023/06/14 04:26:47;;;;;;;5.10;2.50;;;15.00;97.40;;;;;;5050339;28;20043;-53
2023/06/14 04:29:15;;;;;;;3.45;2.63;;;15.00;97.50;;;;;;5051726;28;20048;-54
2023/06/14 04:31:42;;;;;;;6.60;2.83;;;15.10;97.60;;;;;;5046693;28;20510;-55
2023/06/14 04:34:08;;;;;;;6.70;2.97;;;15.10;97.70;;;;;;5031501;28;20048;-54
2023/06/14 04:36:36;;;;;;;5.97;2.78;;;15.10;97.70;;;;;;5042462;28;20040;-55
2023/06/14 04:39:03;;;;;;;6.20;2.53;;;15.10;97.80;;;;;;5038509;28;20051;-55
2023/06/14 04:41:32;;;;;;;5.68;2.75;;;15.10;98.00;;;;;;5062778;28;20114;-55
2023/06/14 04:44:02;;;;;;;5.38;2.70;;;15.10;98.00;;;;;;5045163;28;20050;-54
2023/06/14 04:46:28;;;;;;;3.70;2.42;;;15.10;98.10;;;;;;5031842;28;20036;-55
2023/06/14 04:48:54;;;;;;;5.32;3.03;;;15.10;98.20;;;;;;5048134;28;20036;-54
2023/06/14 04:51:29;;;;;;;8.52;3.40;;;15.10;98.20;;;;;;5024672;28;20040;-55
2023/06/14 04:53:58;;;;;;;6.28;2.78;;;15.10;98.50;;;;;;5062516;28;20036;-53
2023/06/14 04:56:25;;;;;;;5.75;3.00;;;15.20;98.60;;;;;;5064624;28;20047;-55
2023/06/14 04:58:52;;;;;;;5.38;2.83;;;15.20;98.70;;;;;;5062434;28;20040;-55
2023/06/14 05:01:34;;;;;;;6.47;2.85;;;15.20;98.70;;;;;;5064135;28;20044;-52
2023/06/14 05:04:00;;;;;;;6.03;3.00;;;15.30;98.80;;;;;;5042223;28;20056;-55
2023/06/14 05:06:28;;;;;;;4.57;3.00;;;15.30;99.00;;;;;;5058886;28;20036;-55
2023/06/14 05:08:54;;;;;;;4.20;2.33;;;15.30;98.80;;;;;;5056709;28;20471;-54
2023/06/14 05:11:20;;;;;;;5.03;2.47;;;15.40;98.90;;;;;;5053559;28;20043;-54
2023/06/14 05:13:46;;;;;;;7.93;2.90;;;15.40;98.90;;;;;;5051799;28;20080;-51
2023/06/14 05:16:12;;;;;;;7.32;3.00;;;15.50;99.00;;;;;;5059815;28;20040;-56
2023/06/14 05:18:40;;;;;;;4.47;2.85;;;15.60;99.20;;;;;;5031439;28;20423;-52
2023/06/14 05:21:06;;;;;;;8.52;3.53;;;15.70;98.90;;;;;;5028480;28;20064;-55
2023/06/14 05:23:32;;;;;;;6.32;3.28;;;15.80;98.80;;;;;;5054569;28;20485;-55
2023/06/14 05:25:58;;;;;;;4.70;2.88;;;15.80;98.80;;;;;;5025812;28;20131;-54
2023/06/14 05:28:24;;;;;;;5.50;2.90;;;15.90;98.70;;;;;;5051216;28;20071;-55
2023/06/14 05:30:51;;;;;;;8.07;2.50;;;16.00;98.70;;;;;;5056664;28;20044;-51
2023/06/14 05:33:17;;;;;;;6.25;3.33;;;16.10;98.60;;;;;;5043189;28;20037;-55
2023/06/14 05:35:43;;;;;;;4.10;2.50;;;16.20;98.50;;;;;;5016687;28;20040;-54
2023/06/14 05:38:08;;;;;;;7.57;3.10;;;16.30;98.60;;;;;;5047527;28;20037;-55
2023/06/14 05:40:34;;;;;;;5.82;3.05;;;16.40;98.40;;;;;;5023556;28;20036;-54
2023/06/14 05:43:00;;;;;;;7.63;3.72;;;16.50;98.10;;;;;;5016306;28;20040;-51
2023/06/14 05:45:26;;;;;;;7.18;3.05;;;16.60;97.90;;;;;;5046330;28;20756;-56
2023/06/14 05:47:54;;;;;;;8.38;3.10;;;16.70;97.70;;;;;;5048327;28;20588;-55
2023/06/14 05:50:20;;;;;;;7.55;3.05;;;16.80;97.50;;;;;;5060323;28;20634;-53
2023/06/14 05:52:46;;;;;;;5.85;3.28;;;16.90;97.40;;;;;;5026737;28;20036;-56
2023/06/14 05:55:12;;;;;;;6.20;3.22;;;17.00;96.90;;;;;;5065717;28;20040;-54
2023/06/14 05:57:38;;;;;;;6.78;3.28;;;17.00;96.70;;;;;;5045513;28;20044;-55
2023/06/14 06:00:14;;;;;;;8.27;3.10;;;17.10;96.60;;;;;;5045728;28;20048;-55
2023/06/14 06:02:41;;;;;;;7.65;3.35;;;17.20;96.50;;;;;;5056524;28;20048;-55
2023/06/14 06:05:07;;;;;;;6.13;3.15;;;17.30;96.20;;;;;;5048032;28;20048;-55
2023/06/14 06:07:32;;;;;;;5.35;3.05;;;17.40;96.20;;;;;;5062299;28;20398;-57
2023/06/14 06:09:58;;;;;;;7.00;3.15;;;17.50;95.90;;;;;;5069035;28;20473;-55
2023/06/14 06:12:24;;;;;;;4.25;2.90;;;17.50;95.50;;;;;;5061923;28;20497;-56
2023/06/14 06:14:49;;;;;;;5.07;3.15;;;17.60;95.10;;;;;;5059049;28;20040;-55
2023/06/14 06:17:15;;;;;;;8.52;3.10;;;17.60;95.30;;;;;;5031278;28;20126;-58
2023/06/14 06:19:41;;;;;;;7.53;2.80;;;17.70;95.20;;;;;;5063260;28;20093;-57
2023/06/14 06:22:07;;;;;;;6.45;3.42;;;17.80;94.80;;;;;;5026766;28;20072;-57
2023/06/14 06:24:36;;;;;;;6.30;2.97;;;17.80;94.60;;;;;;5039406;28;20052;-55
2023/06/14 06:27:02;;;;;;;5.82;2.88;;;17.90;94.30;;;;;;5040093;28;20367;-53
2023/06/14 06:29:27;;;;;;;8.25;3.42;;;18.00;94.10;;;;;;5049727;28;20483;-55
2023/06/14 06:31:53;;;;;;;9.27;3.35;;;18.10;93.80;;;;;;5049157;28;20055;-56
2023/06/14 06:34:19;;;;;;;8.55;3.47;;;18.20;94.00;;;;;;5041935;28;20048;-55
2023/06/14 06:36:45;;;;;;;7.80;3.20;;;18.30;94.10;;;;;;5047201;28;20086;-56
2023/06/14 06:39:10;;;;;;;4.63;2.67;;;18.50;94.10;;;;;;5035035;28;20072;-56
2023/06/14 06:41:39;;;;;;;7.47;3.33;;;18.60;94.00;;;;;;5033571;28;20060;-54
2023/06/14 06:44:06;;;;;;;9.30;3.08;;;18.70;93.20;;;;;;5043350;28;20509;-53
2023/06/14 06:46:33;;;;;;;5.95;2.53;;;18.80;93.20;;;;;;5063385;28;20051;-56
2023/06/14 06:48:59;;;;;;;4.35;2.83;;;18.90;92.80;;;;;;5048495;28;20029;-56
2023/06/14 06:51:25;;;;;;;4.80;2.90;;;19.00;92.30;;;;;;5046359;28;20348;-56
2023/06/14 06:53:54;;;;;;;6.15;2.85;;;19.00;91.90;;;;;;5055268;28;20050;-56
2023/06/14 06:56:22;;;;;;;4.55;2.80;;;19.20;92.20;;;;;;5064562;28;20032;-56
2023/06/14 06:58:49;;;;;;;6.25;2.70;;;19.30;91.90;;;;;;5037417;28;20067;-55
2023/06/14 07:01:15;;;;;;;4.63;2.67;;;19.30;91.70;;;;;;5042472;28;20047;-56
2023/06/14 07:03:41;;;;;;;4.75;2.97;;;19.40;91.80;;;;;;5047793;28;20083;-57
2023/06/14 07:06:07;;;;;;;5.00;2.60;;;19.60;91.30;;;;;;5050207;28;20131;-57
2023/06/14 07:08:33;;;;;;;6.30;2.95;;;19.70;91.20;;;;;;5037145;28;20043;-57
2023/06/14 07:10:58;;;;;;;4.20;2.60;;;19.70;90.70;;;;;;5063315;28;20551;-57
2023/06/14 07:13:24;;;;;;;4.78;2.47;;;19.90;90.70;;;;;;5046181;28;20036;-53
2023/06/14 07:15:53;;;;;;;3.40;2.13;;;20.00;90.40;;;;;;5019702;28;20044;-56
2023/06/14 07:18:18;;;;;;;4.95;2.30;;;20.00;90.00;;;;;;5062103;28;20041;-55
2023/06/14 07:20:44;;;;;;;5.18;1.98;;;20.10;89.90;;;;;;5063307;28;20043;-58
2023/06/14 07:23:10;;;;;;;4.32;2.63;;;20.10;86.90;;;;;;5016027;28;20463;-57
2023/06/14 07:25:36;;;;;;;7.53;2.80;;;20.20;88.90;;;;;;5057974;28;20183;-56
2023/06/14 07:28:02;;;;;;;6.32;2.45;;;20.50;89.40;;;;;;5056224;28;20033;-58
2023/06/14 07:30:29;;;;;;;6.90;2.40;;;20.50;88.70;;;;;;5044792;28;20055;-55
2023/06/14 07:32:56;;;;;;;4.53;2.50;;;20.60;88.00;;;;;;5043453;28;20037;-56
2023/06/14 07:35:21;;;;;;;5.68;2.78;;;20.70;87.00;;;;;;5029926;28;20990;-57
2023/06/14 07:37:47;;;;;;;5.03;2.13;;;20.70;85.30;;;;;;5043344;28;20040;-55
2023/06/14 07:40:14;;;;;;;5.35;2.17;;;20.70;85.90;;;;;;5059940;28;20491;-56
2023/06/14 07:42:39;;;;;;;6.15;2.40;;;20.70;86.10;;;;;;5053822;28;20037;-56
2023/06/14 07:45:06;;;;;;;8.02;2.35;;;20.80;85.10;;;;;;5042326;28;20048;-56
2023/06/14 07:47:32;;;;;;;5.10;2.28;;;21.00;85.40;;;;;;5051196;28;20085;-54
2023/06/14 07:49:58;;;;;;;5.45;2.40;;;21.00;85.30;;;;;;5046590;28;20622;-55
2023/06/14 07:52:24;;;;;;;6.93;2.47;;;21.00;85.00;;;;;;5066977;28;20127;-54
2023/06/14 07:54:50;;;;;;;3.33;2.35;;;21.10;84.70;;;;;;5057438;28;20047;-56
2023/06/14 07:57:16;;;;;;;4.32;2.15;;;21.20;85.00;;;;;;5045627;28;20049;-55
2023/06/14 07:59:42;;;;;;;4.15;2.38;;;21.40;84.30;;;;;;5029788;28;20072;-55
2023/06/14 08:02:07;;;;;;;5.13;2.50;;;21.40;84.10;;;;;;5044908;28;20041;-53
2023/06/14 08:04:33;;;;;;;7.75;2.30;;;21.50;83.10;;;;;;5040915;28;20550;-56
2023/06/14 08:07:00;;;;;;;4.53;2.17;;;21.60;83.50;;;;;;5049751;28;20041;-53
2023/06/14 08:09:28;;;;;;;4.13;2.60;;;21.60;82.80;;;;;;5049082;28;20655;-55
2023/06/14 08:11:54;;;;;;;6.40;2.30;;;21.80;82.00;;;;;;5065705;28;20045;-56
2023/06/14 08:14:20;;;;;;;5.82;2.42;;;21.80;81.10;;;;;;5048967;28;20050;-56
2023/06/14 08:16:46;;;;;;;4.40;2.10;;;21.90;81.50;;;;;;5029867;28;20311;-53
2023/06/14 08:19:12;;;;;;;4.15;2.30;;;21.90;81.10;;;;;;5051322;28;20038;-53
2023/06/14 08:21:37;;;;;;;4.30;2.30;;;22.00;80.80;;;;;;5080900;23;20509;-59
2023/06/14 08:24:03;;;;;;;6.68;2.40;;;22.20;82.10;;;;;;5072386;28;20052;-59
2023/06/14 08:26:30;;;;;;;5.03;2.53;;;22.30;81.20;;;;;;5058170;28;20028;-60
2023/06/14 08:28:56;;;;;;;5.78;2.30;;;22.50;81.90;;;;;;5089707;28;20049;-59
2023/06/14 08:31:22;;;;;;;3.72;2.22;;;22.60;79.70;;;;;;5098104;22;20040;-58
2023/06/14 08:33:48;;;;;;;3.30;2.03;;;22.60;78.10;;;;;;5025799;28;20052;-59
2023/06/14 08:36:13;;;;;;;7.65;2.40;;;22.60;79.10;;;;;;5029842;28;20040;-59
2023/06/14 08:38:39;;;;;;;4.95;2.40;;;22.70;79.40;;;;;;5035285;28;20566;-58
2023/06/14 08:41:08;;;;;;;3.03;2.20;;;22.80;79.20;;;;;;5019740;28;20119;-60
2023/06/14 08:43:34;;;;;;;5.03;2.35;;;22.90;78.80;;;;;;5045932;28;20123;-60
2023/06/14 08:46:06;;;;;;;9.65;2.70;;;22.90;77.10;;;;;;5033271;28;20083;-61
2023/06/14 08:48:33;;;;;;;5.03;2.25;;;22.70;77.60;;;;;;5047223;28;20049;-59
2023/06/14 08:51:04;;;;;;;3.72;2.10;;;22.70;79.30;;;;;;5046761;28;20032;-58
2023/06/14 08:53:33;;;;;;;5.70;2.08;;;22.90;78.20;;;;;;5028112;28;20380;-60
2023/06/14 08:56:04;;;;;;;5.47;2.08;;;23.00;76.90;;;;;;5047488;28;20063;-59
2023/06/14 08:58:34;;;;;;;5.05;2.40;;;23.10;77.40;;;;;;5040782;28;20032;-59
2023/06/14 09:01:01;;;;;;;6.20;2.25;;;23.00;75.10;;;;;;5064403;28;20075;-59
2023/06/14 09:03:30;;;;;;;6.00;2.20;;;23.00;76.10;;;;;;5029263;28;20503;-60
2023/06/14 09:06:00;;;;;;;2.85;2.15;;;23.00;75.20;;;;;;5030438;28;20029;-60
2023/06/14 09:08:30;;;;;;;6.97;2.60;;;23.10;75.30;;;;;;5046853;28;20494;-60
2023/06/14 09:10:56;;;;;;;4.47;2.00;;;23.20;75.20;;;;;;5051367;28;20430;-59
2023/06/14 09:13:22;;;;;;;4.28;2.40;;;23.30;75.40;;;;;;5050605;28;20298;-60
2023/06/14 09:15:48;;;;;;;3.63;2.33;;;23.50;76.00;;;;;;5030932;28;20037;-59
2023/06/14 09:18:13;;;;;;;5.95;2.00;;;23.70;76.00;;;;;;5047839;28;20473;-59
2023/06/14 09:20:40;;;;;;;5.60;2.10;;;23.70;75.30;;;;;;5053038;28;20749;-60
2023/06/14 09:23:07;;;;;;;8.85;2.63;;;23.70;75.50;;;;;;5030193;28;20119;-57
2023/06/14 09:25:42;;;;;;;5.13;2.08;;;23.80;75.20;;;;;;5040109;28;20399;-60
2023/06/14 09:28:08;;;;;;;5.18;2.28;;;24.00;75.00;;;;;;5028292;28;20036;-60
2023/06/14 09:30:35;;;;;;;5.05;2.03;;;24.10;76.10;;;;;;5031951;28;20041;-60
2023/06/14 09:33:01;;;;;;;5.55;2.45;;;24.30;75.10;;;;;;5043203;28;20311;-60
2023/06/14 09:35:29;;;;;;;4.03;2.50;;;24.40;74.70;;;;;;5039357;28;20056;-61
2023/06/14 09:37:55;;;;;;;3.60;1.98;;;24.50;74.90;;;;;;5023944;28;20083;-61
2023/06/14 09:40:21;;;;;;;3.90;2.13;;;24.50;72.40;;;;;;5026026;28;20072;-60
2023/06/14 09:42:48;;;;;;;3.55;2.10;;;24.50;72.80;;;;;;5043913;28;20380;-62
2023/06/14 09:45:19;;;;;;;4.50;2.25;;;24.60;72.00;;;;;;5028955;28;20132;-60
2023/06/14 09:47:45;;;;;;;3.00;2.00;;;24.60;72.10;;;;;;5028914;28;20044;-60
2023/06/14 09:50:11;;;;;;;3.88;1.83;;;24.50;70.40;;;;;;5045718;28;20491;-57
2023/06/14 09:52:37;;;;;;;6.70;1.95;;;24.40;69.90;;;;;;5058832;28;20123;-58
2023/06/14 09:55:13;;;;;;;6.25;2.20;;;24.40;68.90;;;;;;5028109;28;20036;-60
2023/06/14 09:57:42;;;;;;;6.47;2.72;;;24.40;68.90;;;;;;5063516;28;20044;-62
2023/06/14 10:00:11;;;;;;;3.83;2.08;;;24.30;70.40;;;;;;5026961;28;20036;-62
2023/06/14 10:02:38;;;;;;;6.82;2.88;;;24.30;69.00;;;;;;5045887;28;20468;-57
2023/06/14 10:05:09;;;;;;;3.17;2.10;;;24.20;68.90;;;;;;5030931;28;20090;-57
2023/06/14 10:07:52;;;;;;;4.82;2.38;;;24.20;69.20;;;;;;5041339;28;20029;-61
2023/06/14 10:10:18;;;;;;;3.03;2.10;;;24.50;70.30;;;;;;5023626;28;20041;-60
2023/06/14 10:12:44;;;;;;;4.05;2.13;;;24.60;70.10;;;;;;5049776;28;20045;-59
2023/06/14 10:15:28;;;;;;;5.88;2.10;;;24.60;69.40;;;;;;5049353;28;20044;-57
2023/06/14 10:18:20;;;;;;;3.80;2.17;;;24.80;69.90;;;;;;5049864;28;20135;-60
2023/06/14 10:20:58;;;;;;;7.40;2.60;;;24.80;68.30;;;;;;5046410;28;20429;-60
2023/06/14 10:23:27;;;;;;;4.93;2.00;;;24.90;69.90;;;;;;5026580;28;20033;-57
2023/06/14 10:26:00;;;;;;;4.47;2.40;;;24.90;68.80;;;;;;5051023;28;20041;-58
2023/06/14 10:28:26;;;;;;;9.88;2.20;;;24.90;69.70;;;;;;5042030;28;21759;-59
2023/06/14 10:31:05;;;;;;;3.25;2.30;;;24.80;69.80;;;;;;5043564;28;20518;-59
2023/06/14 10:33:32;;;;;;;3.22;2.10;;;24.90;70.50;;;;;;5045453;28;20029;-56
2023/06/14 10:36:08;;;;;;;6.22;2.10;;;25.10;70.40;;;;;;5039624;28;20032;-59
2023/06/14 10:38:36;;;;;;;7.22;2.78;;;25.20;71.30;;;;;;5041426;28;20147;-59
2023/06/14 10:41:03;;;;;;;4.25;2.58;;;25.40;70.70;;;;;;5025554;28;20119;-59
2023/06/14 10:43:28;;;;;;;4.78;2.42;;;25.30;71.10;;;;;;5039192;28;20043;-57
2023/06/14 10:46:12;;;;;;;4.82;2.40;;;24.90;70.60;;;;;;5061002;28;20041;-62
2023/06/14 10:48:42;;;;;;;4.63;2.63;;;24.90;70.10;;;;;;5038374;28;20514;-59
2023/06/14 10:51:20;;;;;;;6.60;2.10;;;25.00;69.60;;;;;;5029738;28;20514;-58
2023/06/14 10:53:51;;;;;;;11.52;2.42;;;24.90;69.10;;;;;;5041470;28;20036;-57
2023/06/14 10:56:26;;;;;;;6.38;2.45;;;25.00;69.10;;;;;;5024035;28;20601;-60
2023/06/14 10:58:52;;;;;;;5.70;2.13;;;25.10;68.90;;;;;;5044595;28;20041;-59
2023/06/14 11:01:31;;;;;;;5.25;2.38;;;25.30;69.60;;;;;;5059091;28;20029;-59
2023/06/14 11:04:06;;;;;;;6.82;2.35;;;25.40;70.80;;;;;;5028141;28;20099;-59
2023/06/14 11:07:03;;;;;;;4.45;2.30;;;25.30;68.70;;;;;;5056590;28;20094;-58
2023/06/14 11:09:49;;;;;;;3.17;2.10;;;25.30;70.00;;;;;;5030414;28;20071;-59
2023/06/14 11:12:17;;;;;;;4.43;2.22;;;25.10;68.70;;;;;;5040157;28;20055;-57
2023/06/14 11:14:47;;;;;;;4.85;2.42;;;25.20;69.70;;;;;;5047289;28;20040;-59
2023/06/14 11:17:13;;;;;;;7.25;2.38;;;25.30;68.90;;;;;;5029258;28;20430;-58
2023/06/14 11:19:38;;;;;;;4.90;2.20;;;25.30;68.90;;;;;;5021719;28;20135;-58
2023/06/14 11:22:04;;;;;;;3.10;2.25;;;25.30;67.70;;;;;;5042559;28;20392;-58
2023/06/14 11:24:32;;;;;;;4.55;2.50;;;25.30;68.30;;;;;;5056813;28;20137;-59
2023/06/14 11:26:58;;;;;;;4.60;2.65;;;25.50;69.20;;;;;;5038501;28;20562;-59
2023/06/14 11:29:24;;;;;;;4.72;2.20;;;25.50;68.50;;;;;;5027037;28;20040;-59
2023/06/14 11:31:50;;;;;;;3.75;2.28;;;25.70;68.70;;;;;;5028135;28;20101;-56
2023/06/14 11:34:17;;;;;;;5.72;2.38;;;25.70;68.10;;;;;;5041576;28;20369;-59
2023/06/14 11:36:43;;;;;;;5.63;1.98;;;25.90;69.40;;;;;;5047298;28;20601;-60
2023/06/14 11:39:09;;;;;;;8.63;2.22;;;26.00;67.90;;;;;;5022694;28;20103;-60
2023/06/14 11:41:42;;;;;;;2.67;2.10;;;26.00;67.90;;;;;;5031337;28;20043;-59
2023/06/14 11:44:08;;;;;;;7.00;2.00;;;26.20;68.70;;;;;;5041578;28;20048;-60
2023/06/14 11:46:34;;;;;;;4.40;2.10;;;25.90;66.30;;;;;;5031155;28;20048;-59
2023/06/14 11:49:03;;;;;;;7.30;2.78;;;25.80;67.60;;;;;;5060833;28;20044;-56
2023/06/14 11:51:33;;;;;;;4.75;2.35;;;25.80;68.40;;;;;;5041965;28;20065;-59
2023/06/14 11:53:59;;;;;;;4.25;2.17;;;25.90;69.20;;;;;;5040580;28;20475;-57
2023/06/14 11:56:26;;;;;;;4.90;1.95;;;25.90;67.30;;;;;;5044822;28;20049;-60
2023/06/14 11:58:56;;;;;;;6.57;2.35;;;26.20;68.00;;;;;;5037805;28;20491;-58
2023/06/14 12:01:22;;;;;;;10.57;2.42;;;26.30;67.70;;;;;;5030164;28;20044;-57
2023/06/14 12:03:52;;;;;;;4.57;2.28;;;26.30;67.40;;;;;;5030223;28;20051;-59
2023/06/14 12:06:32;;;;;;;7.85;3.08;;;26.20;65.80;;;;;;5042783;28;20051;-59
2023/06/14 12:08:58;;;;;;;7.03;2.05;;;25.90;65.20;;;;;;5028600;28;20145;-60
2023/06/14 12:11:28;;;;;;;6.13;2.60;;;25.80;65.90;;;;;;5016343;28;20175;-57
2023/06/14 12:13:53;;;;;;;4.47;2.08;;;25.90;67.40;;;;;;5039208;28;20048;-60
2023/06/14 12:16:19;;;;;;;5.20;2.03;;;26.20;67.50;;;;;;5035386;28;20090;-59
2023/06/14 12:18:45;;;;;;;2.22;1.88;;;26.10;65.30;;;;;;5024316;28;20044;-58
2023/06/14 12:21:11;;;;;;;4.32;2.00;;;26.00;65.90;;;;;;5024815;28;20040;-59
2023/06/14 12:23:48;;;;;;;7.65;2.17;;;26.10;66.30;;;;;;5045076;28;20395;-60
2023/06/14 12:26:18;;;;;;;3.10;2.25;;;26.20;67.00;;;;;;5039868;28;20045;-59
2023/06/14 12:28:47;;;;;;;4.53;2.00;;;26.30;66.10;;;;;;5040025;28;20129;-61
2023/06/14 12:31:16;;;;;;;6.65;1.88;;;26.30;65.50;;;;;;5023097;28;20496;-60
2023/06/14 12:33:42;;;;;;;4.88;2.67;;;26.20;65.90;;;;;;5041131;28;20048;-60
2023/06/14 12:36:09;;;;;;;4.30;1.85;;;25.90;65.40;;;;;;5038150;28;20488;-59
2023/06/14 12:38:36;;;;;;;6.93;2.33;;;25.80;66.20;;;;;;5039675;28;20040;-59
2023/06/14 12:41:02;;;;;;;4.38;1.70;;;25.80;67.50;;;;;;5038796;28;20510;-58
2023/06/14 12:43:31;;;;;;;4.93;1.63;;;26.10;67.30;;;;;;5043850;28;20055;-56
2023/06/14 12:45:57;;;;;;;4.90;1.95;;;26.30;66.70;;;;;;5046844;28;20123;-57
2023/06/14 12:48:23;;;;;;;4.80;2.05;;;26.60;66.90;;;;;;5007877;28;20537;-60